sensor_id;sensor_type;location;lat;lon;timestamp;P1;durP1;ratioP1;P2;durP2;ratioP2
50559;SDS011;36510;52.610;13.468;2022-11-12T00:03:11;16.00;;;14.00;;
50559;SDS011;36510;52.610;13.468;2022-11-12T00:08:02;16.25;;;13.55;;
50559;SDS011;36510;52.610;13.468;2022-11-12T00:12:53;16.38;;;13.52;;
50559;SDS011;36510;52.610;13.468;2022-11-12T00:17:44;17.10;;;13.25;;
50559;SDS011;36510;52.610;13.468;2022-11-12T00:22:34;17.00;;;13.05;;
50559;SDS011;36510;52.610;13.468;2022-11-12T00:27:25;15.02;;;12.20;;
50559;SDS011;36510;52.610;13.468;2022-11-12T00:37:37;16.35;;;13.45;;
50559;SDS011;36510;52.610;13.468;2022-11-12T00:42:27;17.95;;;14.40;;
50559;SDS011;36510;52.610;13.468;2022-11-12T00:47:18;19.13;;;15.07;;
50559;SDS011;36510;52.610;13.468;2022-11-12T00:52:08;16.83;;;13.13;;
50559;SDS011;36510;52.610;13.468;2022-11-12T00:56:59;15.38;;;12.80;;
50559;SDS011;36510;52.610;13.468;2022-11-12T01:01:49;18.73;;;13.45;;
50559;SDS011;36510;52.610;13.468;2022-11-12T01:06:40;18.17;;;13.63;;
50559;SDS011;36510;52.610;13.468;2022-11-12T01:11:30;16.48;;;14.00;;
50559;SDS011;36510;52.610;13.468;2022-11-12T01:16:22;22.80;;;17.08;;
50559;SDS011;36510;52.610;13.468;2022-11-12T01:21:13;22.85;;;16.88;;
50559;SDS011;36510;52.610;13.468;2022-11-12T01:26:08;25.27;;;16.42;;
50559;SDS011;36510;52.610;13.468;2022-11-12T01:31:11;25.13;;;16.00;;
50559;SDS011;36510;52.610;13.468;2022-11-12T01:36:12;19.33;;;14.57;;
50559;SDS011;36510;52.610;13.468;2022-11-12T01:41:04;16.60;;;12.80;;
50559;SDS011;36510;52.610;13.468;2022-11-12T01:45:56;18.17;;;12.57;;
50559;SDS011;36510;52.610;13.468;2022-11-12T01:50:47;18.52;;;12.60;;
50559;SDS011;36510;52.610;13.468;2022-11-12T01:55:37;14.35;;;11.80;;
50559;SDS011;36510;52.610;13.468;2022-11-12T02:00:28;16.38;;;11.52;;
50559;SDS011;36510;52.610;13.468;2022-11-12T02:05:18;15.82;;;11.10;;
50559;SDS011;36510;52.610;13.468;2022-11-12T02:10:11;15.23;;;11.38;;
50559;SDS011;36510;52.610;13.468;2022-11-12T02:15:03;14.05;;;11.60;;
50559;SDS011;36510;52.610;13.468;2022-11-12T02:19:57;15.70;;;10.63;;
50559;SDS011;36510;52.610;13.468;2022-11-12T02:24:48;14.77;;;10.60;;
50559;SDS011;36510;52.610;13.468;2022-11-12T02:29:38;13.63;;;10.38;;
50559;SDS011;36510;52.610;13.468;2022-11-12T02:34:35;13.55;;;9.98;;
50559;SDS011;36510;52.610;13.468;2022-11-12T02:39:25;10.90;;;8.60;;
50559;SDS011;36510;52.610;13.468;2022-11-12T02:44:16;12.35;;;7.97;;
50559;SDS011;36510;52.610;13.468;2022-11-12T02:49:06;9.18;;;6.82;;
50559;SDS011;36510;52.610;13.468;2022-11-12T02:53:56;10.23;;;6.70;;
50559;SDS011;36510;52.610;13.468;2022-11-12T02:58:47;6.65;;;5.90;;
50559;SDS011;36510;52.610;13.468;2022-11-12T03:03:37;8.13;;;6.07;;
50559;SDS011;36510;52.610;13.468;2022-11-12T03:08:28;8.20;;;6.25;;
50559;SDS011;36510;52.610;13.468;2022-11-12T03:13:19;6.75;;;5.55;;
50559;SDS011;36510;52.610;13.468;2022-11-12T03:18:09;8.45;;;5.78;;
50559;SDS011;36510;52.610;13.468;2022-11-12T03:23:02;7.90;;;5.38;;
50559;SDS011;36510;52.610;13.468;2022-11-12T03:27:57;7.43;;;5.53;;
50559;SDS011;36510;52.610;13.468;2022-11-12T03:32:48;6.75;;;5.38;;
50559;SDS011;36510;52.610;13.468;2022-11-12T03:37:38;6.97;;;5.10;;
50559;SDS011;36510;52.610;13.468;2022-11-12T03:42:28;6.75;;;5.03;;
50559;SDS011;36510;52.610;13.468;2022-11-12T03:47:19;7.05;;;5.45;;
50559;SDS011;36510;52.610;13.468;2022-11-12T03:52:09;6.95;;;5.25;;
50559;SDS011;36510;52.610;13.468;2022-11-12T03:57:00;7.47;;;5.15;;
50559;SDS011;36510;52.610;13.468;2022-11-12T04:01:50;5.68;;;4.88;;
50559;SDS011;36510;52.610;13.468;2022-11-12T04:06:41;8.30;;;5.93;;
50559;SDS011;36510;52.610;13.468;2022-11-12T04:11:50;7.07;;;5.03;;
50559;SDS011;36510;52.610;13.468;2022-11-12T04:16:40;6.68;;;5.50;;
50559;SDS011;36510;52.610;13.468;2022-11-12T04:21:51;10.57;;;6.35;;
50559;SDS011;36510;52.610;13.468;2022-11-12T04:26:46;7.65;;;5.28;;
50559;SDS011;36510;52.610;13.468;2022-11-12T04:31:36;8.20;;;5.57;;
50559;SDS011;36510;52.610;13.468;2022-11-12T04:36:27;7.28;;;5.03;;
50559;SDS011;36510;52.610;13.468;2022-11-12T04:41:17;5.78;;;5.18;;
50559;SDS011;36510;52.610;13.468;2022-11-12T04:46:26;6.88;;;5.32;;
50559;SDS011;36510;52.610;13.468;2022-11-12T04:51:17;7.03;;;5.03;;
50559;SDS011;36510;52.610;13.468;2022-11-12T04:56:26;6.65;;;5.25;;
50559;SDS011;36510;52.610;13.468;2022-11-12T05:01:16;6.43;;;4.85;;
50559;SDS011;36510;52.610;13.468;2022-11-12T05:06:07;8.00;;;5.60;;
50559;SDS011;36510;52.610;13.468;2022-11-12T05:11:17;5.80;;;4.97;;
50559;SDS011;36510;52.610;13.468;2022-11-12T05:16:08;5.40;;;4.65;;
50559;SDS011;36510;52.610;13.468;2022-11-12T05:20:58;6.40;;;5.40;;
50559;SDS011;36510;52.610;13.468;2022-11-12T05:26:08;5.82;;;4.72;;
50559;SDS011;36510;52.610;13.468;2022-11-12T05:30:59;5.60;;;4.53;;
50559;SDS011;36510;52.610;13.468;2022-11-12T05:35:49;6.72;;;5.32;;
50559;SDS011;36510;52.610;13.468;2022-11-12T05:40:43;7.35;;;5.05;;
50559;SDS011;36510;52.610;13.468;2022-11-12T05:45:34;5.55;;;4.55;;
50559;SDS011;36510;52.610;13.468;2022-11-12T05:50:24;6.55;;;4.72;;
50559;SDS011;36510;52.610;13.468;2022-11-12T05:55:15;6.57;;;5.03;;
50559;SDS011;36510;52.610;13.468;2022-11-12T06:00:05;6.03;;;5.03;;
50559;SDS011;36510;52.610;13.468;2022-11-12T06:04:57;5.47;;;4.88;;
50559;SDS011;36510;52.610;13.468;2022-11-12T06:09:47;7.10;;;4.95;;
50559;SDS011;36510;52.610;13.468;2022-11-12T06:14:38;5.97;;;4.78;;
50559;SDS011;36510;52.610;13.468;2022-11-12T06:19:28;6.03;;;4.95;;
50559;SDS011;36510;52.610;13.468;2022-11-12T06:24:19;5.97;;;4.55;;
50559;SDS011;36510;52.610;13.468;2022-11-12T06:29:09;7.13;;;4.57;;
50559;SDS011;36510;52.610;13.468;2022-11-12T06:34:00;6.68;;;4.82;;
50559;SDS011;36510;52.610;13.468;2022-11-12T06:38:52;6.63;;;4.82;;
50559;SDS011;36510;52.610;13.468;2022-11-12T06:43:42;5.60;;;5.03;;
50559;SDS011;36510;52.610;13.468;2022-11-12T06:48:33;8.25;;;5.07;;
50559;SDS011;36510;52.610;13.468;2022-11-12T06:53:24;5.97;;;4.97;;
50559;SDS011;36510;52.610;13.468;2022-11-12T06:58:15;6.13;;;5.43;;
50559;SDS011;36510;52.610;13.468;2022-11-12T07:03:06;7.25;;;5.40;;
50559;SDS011;36510;52.610;13.468;2022-11-12T07:07:57;8.65;;;5.93;;
50559;SDS011;36510;52.610;13.468;2022-11-12T07:12:47;8.10;;;5.95;;
50559;SDS011;36510;52.610;13.468;2022-11-12T07:17:38;7.38;;;5.60;;
50559;SDS011;36510;52.610;13.468;2022-11-12T07:22:28;8.45;;;5.95;;
50559;SDS011;36510;52.610;13.468;2022-11-12T07:27:21;7.47;;;6.30;;
50559;SDS011;36510;52.610;13.468;2022-11-12T07:32:11;7.47;;;6.47;;
50559;SDS011;36510;52.610;13.468;2022-11-12T07:37:02;10.57;;;7.25;;
50559;SDS011;36510;52.610;13.468;2022-11-12T07:41:52;8.43;;;7.05;;
50559;SDS011;36510;52.610;13.468;2022-11-12T07:46:43;8.77;;;6.90;;
50559;SDS011;36510;52.610;13.468;2022-11-12T07:51:34;7.43;;;6.57;;
50559;SDS011;36510;52.610;13.468;2022-11-12T07:56:25;8.82;;;6.72;;
50559;SDS011;36510;52.610;13.468;2022-11-12T08:01:22;9.88;;;7.25;;
50559;SDS011;36510;52.610;13.468;2022-11-12T08:06:17;10.65;;;8.20;;
50559;SDS011;36510;52.610;13.468;2022-11-12T08:11:07;11.75;;;9.27;;
50559;SDS011;36510;52.610;13.468;2022-11-12T08:15:58;11.80;;;8.75;;
50559;SDS011;36510;52.610;13.468;2022-11-12T08:20:49;10.05;;;9.00;;
50559;SDS011;36510;52.610;13.468;2022-11-12T08:25:39;16.13;;;10.43;;
50559;SDS011;36510;52.610;13.468;2022-11-12T08:30:30;15.65;;;12.15;;
50559;SDS011;36510;52.610;13.468;2022-11-12T08:35:20;19.10;;;16.05;;
50559;SDS011;36510;52.610;13.468;2022-11-12T08:40:11;18.40;;;14.43;;
50559;SDS011;36510;52.610;13.468;2022-11-12T08:45:01;15.93;;;12.02;;
50559;SDS011;36510;52.610;13.468;2022-11-12T08:49:52;18.00;;;12.30;;
50559;SDS011;36510;52.610;13.468;2022-11-12T08:54:42;15.80;;;12.70;;
50559;SDS011;36510;52.610;13.468;2022-11-12T08:59:33;15.23;;;12.80;;
50559;SDS011;36510;52.610;13.468;2022-11-12T09:04:23;17.48;;;12.63;;
50559;SDS011;36510;52.610;13.468;2022-11-12T09:09:14;15.63;;;11.90;;
50559;SDS011;36510;52.610;13.468;2022-11-12T09:14:04;15.70;;;12.13;;
50559;SDS011;36510;52.610;13.468;2022-11-12T09:18:55;18.30;;;12.55;;
50559;SDS011;36510;52.610;13.468;2022-11-12T09:23:45;17.17;;;12.40;;
50559;SDS011;36510;52.610;13.468;2022-11-12T09:28:36;17.38;;;12.75;;
50559;SDS011;36510;52.610;13.468;2022-11-12T09:33:29;15.68;;;12.63;;
50559;SDS011;36510;52.610;13.468;2022-11-12T09:38:20;15.15;;;12.48;;
50559;SDS011;36510;52.610;13.468;2022-11-12T09:43:15;19.58;;;14.30;;
50559;SDS011;36510;52.610;13.468;2022-11-12T09:48:15;22.65;;;14.13;;
50559;SDS011;36510;52.610;13.468;2022-11-12T09:53:13;21.38;;;14.88;;
50559;SDS011;36510;52.610;13.468;2022-11-12T09:58:25;18.70;;;14.45;;
50559;SDS011;36510;52.610;13.468;2022-11-12T10:13:44;18.63;;;15.32;;
50559;SDS011;36510;52.610;13.468;2022-11-12T10:18:55;22.43;;;15.67;;
50559;SDS011;36510;52.610;13.468;2022-11-12T10:23:52;22.10;;;15.20;;
50559;SDS011;36510;52.610;13.468;2022-11-12T10:33:39;23.77;;;15.82;;
50559;SDS011;36510;52.610;13.468;2022-11-12T10:38:30;23.73;;;15.90;;
50559;SDS011;36510;52.610;13.468;2022-11-12T10:43:23;19.60;;;15.75;;
50559;SDS011;36510;52.610;13.468;2022-11-12T10:48:21;23.75;;;16.65;;
50559;SDS011;36510;52.610;13.468;2022-11-12T10:53:29;20.45;;;14.70;;
50559;SDS011;36510;52.610;13.468;2022-11-12T10:58:25;23.77;;;14.65;;
50559;SDS011;36510;52.610;13.468;2022-11-12T11:03:18;22.17;;;15.90;;
50559;SDS011;36510;52.610;13.468;2022-11-12T11:08:11;19.85;;;13.77;;
50559;SDS011;36510;52.610;13.468;2022-11-12T11:17:58;19.67;;;14.77;;
50559;SDS011;36510;52.610;13.468;2022-11-12T11:22:52;22.83;;;15.38;;
50559;SDS011;36510;52.610;13.468;2022-11-12T11:28:10;21.75;;;14.20;;
50559;SDS011;36510;52.610;13.468;2022-11-12T11:33:18;18.17;;;12.48;;
50559;SDS011;36510;52.610;13.468;2022-11-12T11:38:20;17.75;;;11.85;;
50559;SDS011;36510;52.610;13.468;2022-11-12T11:43:27;15.57;;;9.98;;
50559;SDS011;36510;52.610;13.468;2022-11-12T11:48:48;15.25;;;9.82;;
50559;SDS011;36510;52.610;13.468;2022-11-12T11:53:56;13.27;;;8.35;;
50559;SDS011;36510;52.610;13.468;2022-11-12T12:09:47;12.43;;;7.45;;
50559;SDS011;36510;52.610;13.468;2022-11-12T12:20:12;14.82;;;8.80;;
50559;SDS011;36510;52.610;13.468;2022-11-12T12:25:13;13.10;;;8.38;;
50559;SDS011;36510;52.610;13.468;2022-11-12T12:45:42;12.93;;;7.15;;
50559;SDS011;36510;52.610;13.468;2022-11-12T12:50:35;13.57;;;6.85;;
50559;SDS011;36510;52.610;13.468;2022-11-12T12:55:32;12.95;;;6.95;;
50559;SDS011;36510;52.610;13.468;2022-11-12T13:00:34;15.10;;;6.72;;
50559;SDS011;36510;52.610;13.468;2022-11-12T13:15:41;10.55;;;6.38;;
50559;SDS011;36510;52.610;13.468;2022-11-12T13:20:35;10.35;;;6.43;;
50559;SDS011;36510;52.610;13.468;2022-11-12T13:25:30;9.95;;;7.13;;
50559;SDS011;36510;52.610;13.468;2022-11-12T13:40:13;9.82;;;5.68;;
50559;SDS011;36510;52.610;13.468;2022-11-12T13:45:08;15.13;;;7.30;;
50559;SDS011;36510;52.610;13.468;2022-11-12T13:50:00;14.13;;;7.15;;
50559;SDS011;36510;52.610;13.468;2022-11-12T13:55:04;11.52;;;6.63;;
50559;SDS011;36510;52.610;13.468;2022-11-12T14:00:18;10.55;;;5.60;;
50559;SDS011;36510;52.610;13.468;2022-11-12T14:05:16;11.40;;;6.50;;
50559;SDS011;36510;52.610;13.468;2022-11-12T14:10:10;10.93;;;6.75;;
50559;SDS011;36510;52.610;13.468;2022-11-12T14:20:16;13.18;;;7.30;;
50559;SDS011;36510;52.610;13.468;2022-11-12T14:25:16;16.10;;;8.47;;
50559;SDS011;36510;52.610;13.468;2022-11-12T14:30:10;46.65;;;20.20;;
50559;SDS011;36510;52.610;13.468;2022-11-12T14:35:18;13.65;;;7.22;;
50559;SDS011;36510;52.610;13.468;2022-11-12T14:45:13;10.82;;;5.90;;
50559;SDS011;36510;52.610;13.468;2022-11-12T14:50:07;9.05;;;5.53;;
50559;SDS011;36510;52.610;13.468;2022-11-12T14:55:36;12.63;;;6.60;;
50559;SDS011;36510;52.610;13.468;2022-11-12T15:05:20;11.20;;;5.82;;
50559;SDS011;36510;52.610;13.468;2022-11-12T15:10:29;10.50;;;6.10;;
50559;SDS011;36510;52.610;13.468;2022-11-12T15:15:25;9.10;;;5.47;;
50559;SDS011;36510;52.610;13.468;2022-11-12T15:20:17;12.15;;;6.55;;
50559;SDS011;36510;52.610;13.468;2022-11-12T15:25:09;13.60;;;6.60;;
50559;SDS011;36510;52.610;13.468;2022-11-12T15:30:13;16.35;;;11.18;;
50559;SDS011;36510;52.610;13.468;2022-11-12T15:40:16;17.35;;;10.68;;
50559;SDS011;36510;52.610;13.468;2022-11-12T15:45:09;25.85;;;16.27;;
50559;SDS011;36510;52.610;13.468;2022-11-12T15:50:10;29.95;;;17.27;;
50559;SDS011;36510;52.610;13.468;2022-11-12T15:55:11;68.07;;;35.70;;
50559;SDS011;36510;52.610;13.468;2022-11-12T16:00:12;51.42;;;30.92;;
50559;SDS011;36510;52.610;13.468;2022-11-12T16:05:12;47.50;;;28.33;;
50559;SDS011;36510;52.610;13.468;2022-11-12T16:10:04;44.45;;;26.50;;
50559;SDS011;36510;52.610;13.468;2022-11-12T16:14:54;45.33;;;27.67;;
50559;SDS011;36510;52.610;13.468;2022-11-12T16:19:45;34.80;;;23.67;;
50559;SDS011;36510;52.610;13.468;2022-11-12T16:24:35;37.75;;;23.25;;
50559;SDS011;36510;52.610;13.468;2022-11-12T16:29:26;36.45;;;24.05;;
50559;SDS011;36510;52.610;13.468;2022-11-12T16:34:16;31.83;;;21.98;;
50559;SDS011;36510;52.610;13.468;2022-11-12T16:39:08;28.15;;;17.95;;
50559;SDS011;36510;52.610;13.468;2022-11-12T16:44:01;28.98;;;20.15;;
50559;SDS011;36510;52.610;13.468;2022-11-12T16:48:52;27.42;;;19.58;;
50559;SDS011;36510;52.610;13.468;2022-11-12T16:53:43;25.23;;;16.02;;
50559;SDS011;36510;52.610;13.468;2022-11-12T16:58:34;27.73;;;18.38;;
50559;SDS011;36510;52.610;13.468;2022-11-12T17:03:25;25.05;;;18.58;;
50559;SDS011;36510;52.610;13.468;2022-11-12T17:08:16;27.58;;;20.80;;
50559;SDS011;36510;52.610;13.468;2022-11-12T17:13:07;31.10;;;23.50;;
50559;SDS011;36510;52.610;13.468;2022-11-12T17:18:00;32.65;;;24.90;;
50559;SDS011;36510;52.610;13.468;2022-11-12T17:22:52;36.80;;;26.85;;
50559;SDS011;36510;52.610;13.468;2022-11-12T17:27:42;37.10;;;26.17;;
50559;SDS011;36510;52.610;13.468;2022-11-12T17:32:33;31.48;;;24.92;;
50559;SDS011;36510;52.610;13.468;2022-11-12T17:37:23;30.67;;;22.85;;
50559;SDS011;36510;52.610;13.468;2022-11-12T17:42:14;32.53;;;23.58;;
50559;SDS011;36510;52.610;13.468;2022-11-12T17:47:05;26.60;;;20.65;;
50559;SDS011;36510;52.610;13.468;2022-11-12T17:51:55;31.02;;;22.63;;
50559;SDS011;36510;52.610;13.468;2022-11-12T17:56:46;32.17;;;23.85;;
50559;SDS011;36510;52.610;13.468;2022-11-12T18:01:37;27.40;;;21.45;;
50559;SDS011;36510;52.610;13.468;2022-11-12T18:06:28;25.63;;;21.25;;
50559;SDS011;36510;52.610;13.468;2022-11-12T18:11:23;27.77;;;20.85;;
50559;SDS011;36510;52.610;13.468;2022-11-12T18:16:16;25.90;;;20.20;;
50559;SDS011;36510;52.610;13.468;2022-11-12T18:21:11;26.90;;;19.38;;
50559;SDS011;36510;52.610;13.468;2022-11-12T18:26:02;25.05;;;20.70;;
50559;SDS011;36510;52.610;13.468;2022-11-12T18:31:03;27.63;;;21.50;;
50559;SDS011;36510;52.610;13.468;2022-11-12T18:36:05;29.85;;;23.33;;
50559;SDS011;36510;52.610;13.468;2022-11-12T18:41:04;28.08;;;22.77;;
50559;SDS011;36510;52.610;13.468;2022-11-12T18:45:58;33.20;;;24.50;;
50559;SDS011;36510;52.610;13.468;2022-11-12T18:50:49;30.33;;;21.88;;
50559;SDS011;36510;52.610;13.468;2022-11-12T18:55:40;32.60;;;25.02;;
50559;SDS011;36510;52.610;13.468;2022-11-12T19:00:30;31.40;;;24.40;;
50559;SDS011;36510;52.610;13.468;2022-11-12T19:05:24;29.25;;;21.48;;
50559;SDS011;36510;52.610;13.468;2022-11-12T19:10:14;27.38;;;22.75;;
50559;SDS011;36510;52.610;13.468;2022-11-12T19:15:05;31.23;;;23.55;;
50559;SDS011;36510;52.610;13.468;2022-11-12T19:19:56;29.85;;;22.23;;
50559;SDS011;36510;52.610;13.468;2022-11-12T19:24:47;26.83;;;22.48;;
50559;SDS011;36510;52.610;13.468;2022-11-12T19:29:37;29.60;;;24.13;;
50559;SDS011;36510;52.610;13.468;2022-11-12T19:34:28;29.30;;;23.10;;
50559;SDS011;36510;52.610;13.468;2022-11-12T19:39:18;30.95;;;22.70;;
50559;SDS011;36510;52.610;13.468;2022-11-12T19:44:09;28.95;;;23.20;;
50559;SDS011;36510;52.610;13.468;2022-11-12T19:48:59;32.67;;;24.77;;
50559;SDS011;36510;52.610;13.468;2022-11-12T19:53:50;31.80;;;26.15;;
50559;SDS011;36510;52.610;13.468;2022-11-12T19:58:44;33.00;;;27.30;;
50559;SDS011;36510;52.610;13.468;2022-11-12T20:03:35;29.90;;;24.58;;
50559;SDS011;36510;52.610;13.468;2022-11-12T20:08:26;29.58;;;24.65;;
50559;SDS011;36510;52.610;13.468;2022-11-12T20:13:17;32.53;;;24.95;;
50559;SDS011;36510;52.610;13.468;2022-11-12T20:18:07;32.88;;;25.92;;
50559;SDS011;36510;52.610;13.468;2022-11-12T20:22:58;32.17;;;26.73;;
50559;SDS011;36510;52.610;13.468;2022-11-12T20:27:48;38.30;;;28.42;;
50559;SDS011;36510;52.610;13.468;2022-11-12T20:32:39;35.47;;;29.02;;
50559;SDS011;36510;52.610;13.468;2022-11-12T20:37:29;34.58;;;29.05;;
50559;SDS011;36510;52.610;13.468;2022-11-12T20:42:20;34.53;;;27.55;;
50559;SDS011;36510;52.610;13.468;2022-11-12T20:47:10;42.30;;;31.42;;
50559;SDS011;36510;52.610;13.468;2022-11-12T20:52:01;38.90;;;30.10;;
50559;SDS011;36510;52.610;13.468;2022-11-12T20:56:52;37.45;;;29.23;;
50559;SDS011;36510;52.610;13.468;2022-11-12T21:01:44;35.45;;;30.40;;
50559;SDS011;36510;52.610;13.468;2022-11-12T21:06:34;35.40;;;31.27;;
50559;SDS011;36510;52.610;13.468;2022-11-12T21:11:25;43.70;;;33.38;;
50559;SDS011;36510;52.610;13.468;2022-11-12T21:16:15;37.33;;;31.52;;
50559;SDS011;36510;52.610;13.468;2022-11-12T21:21:13;38.28;;;31.88;;
50559;SDS011;36510;52.610;13.468;2022-11-12T21:31:05;39.95;;;32.47;;
50559;SDS011;36510;52.610;13.468;2022-11-12T21:35:57;39.85;;;31.48;;
50559;SDS011;36510;52.610;13.468;2022-11-12T21:40:48;38.78;;;31.10;;
50559;SDS011;36510;52.610;13.468;2022-11-12T21:45:45;39.15;;;30.20;;
50559;SDS011;36510;52.610;13.468;2022-11-12T21:50:36;40.65;;;30.27;;
50559;SDS011;36510;52.610;13.468;2022-11-12T21:55:26;38.47;;;31.55;;
50559;SDS011;36510;52.610;13.468;2022-11-12T22:00:17;38.90;;;31.70;;
50559;SDS011;36510;52.610;13.468;2022-11-12T22:05:08;40.22;;;33.20;;
50559;SDS011;36510;52.610;13.468;2022-11-12T22:09:58;39.03;;;32.75;;
50559;SDS011;36510;52.610;13.468;2022-11-12T22:14:49;43.20;;;32.03;;
50559;SDS011;36510;52.610;13.468;2022-11-12T22:19:39;42.08;;;32.95;;
50559;SDS011;36510;52.610;13.468;2022-11-12T22:24:30;43.10;;;33.67;;
50559;SDS011;36510;52.610;13.468;2022-11-12T22:29:20;38.65;;;30.73;;
50559;SDS011;36510;52.610;13.468;2022-11-12T22:34:11;39.53;;;30.35;;
50559;SDS011;36510;52.610;13.468;2022-11-12T22:39:03;39.00;;;30.90;;
50559;SDS011;36510;52.610;13.468;2022-11-12T22:43:54;38.00;;;29.90;;
50559;SDS011;36510;52.610;13.468;2022-11-12T22:48:46;37.80;;;29.77;;
50559;SDS011;36510;52.610;13.468;2022-11-12T22:53:36;35.05;;;27.88;;
50559;SDS011;36510;52.610;13.468;2022-11-12T22:58:27;35.80;;;29.35;;
50559;SDS011;36510;52.610;13.468;2022-11-12T23:03:17;34.95;;;28.98;;
50559;SDS011;36510;52.610;13.468;2022-11-12T23:08:08;36.08;;;29.45;;
50559;SDS011;36510;52.610;13.468;2022-11-12T23:12:58;35.20;;;29.40;;
50559;SDS011;36510;52.610;13.468;2022-11-12T23:17:49;40.65;;;29.60;;
50559;SDS011;36510;52.610;13.468;2022-11-12T23:22:39;39.72;;;29.67;;
50559;SDS011;36510;52.610;13.468;2022-11-12T23:27:30;36.67;;;28.63;;
50559;SDS011;36510;52.610;13.468;2022-11-12T23:32:20;35.63;;;29.27;;
50559;SDS011;36510;52.610;13.468;2022-11-12T23:37:11;36.55;;;28.73;;
50559;SDS011;36510;52.610;13.468;2022-11-12T23:42:01;36.88;;;28.92;;
50559;SDS011;36510;52.610;13.468;2022-11-12T23:46:51;37.67;;;29.08;;
50559;SDS011;36510;52.610;13.468;2022-11-12T23:51:42;37.45;;;29.52;;
50559;SDS011;36510;52.610;13.468;2022-11-12T23:56:32;36.63;;;28.48;;
